Time;durP1;ratioP1;P1;durP2;ratioP2;P2;SDS_P1;SDS_P2;PMS_P1;PMS_P2;Temp;Humidity;BMP_temperature;BMP_pressure;BME280_temperature;BME280_humidity;BME280_pressure;Samples;Min_cycle;Max_cycle;Signal;HPM_P1;HPM_P2
2021/03/24 00:00:28;;;;;;;84.32;42.75;;;4.90;86.40;;;;;;5116012;28;20032;-38
2021/03/24 00:02:55;;;;;;;90.38;40.70;;;5.10;85.10;;;;;;5116416;28;20367;-35
2021/03/24 00:05:28;;;;;;;90.47;42.45;;;4.90;85.20;;;;;;5116203;28;20046;-35
2021/03/24 00:07:53;;;;;;;80.18;40.60;;;4.80;85.80;;;;;;5116281;28;20024;-35
2021/03/24 00:10:22;;;;;;;86.38;44.90;;;4.80;85.50;;;;;;5115975;28;20023;-37
2021/03/24 00:12:48;;;;;;;83.85;40.85;;;4.60;85.80;;;;;;5115808;28;20024;-35
2021/03/24 00:15:14;;;;;;;84.25;41.55;;;4.60;85.90;;;;;;5115933;28;20484;-36
2021/03/24 00:17:39;;;;;;;84.10;38.67;;;4.50;86.00;;;;;;5115725;28;20046;-36
2021/03/24 00:20:08;;;;;;;84.10;41.60;;;4.60;86.00;;;;;;5115638;28;20103;-35
2021/03/24 00:22:34;;;;;;;69.90;36.63;;;4.50;86.00;;;;;;5115587;28;20147;-36
2021/03/24 00:25:00;;;;;;;76.13;38.83;;;4.60;85.80;;;;;;5115744;28;20020;-36
2021/03/24 00:27:26;;;;;;;75.35;38.85;;;4.50;85.80;;;;;;5115627;28;20042;-35
2021/03/24 00:29:51;;;;;;;81.82;39.90;;;4.50;86.10;;;;;;5115595;28;20023;-36
2021/03/24 00:32:18;;;;;;;76.80;38.80;;;4.40;86.20;;;;;;5115445;28;20058;-35
2021/03/24 00:34:44;;;;;;;74.28;39.67;;;4.50;86.30;;;;;;5115521;28;20525;-36
2021/03/24 00:37:10;;;;;;;77.97;38.75;;;4.50;86.30;;;;;;5115254;28;20098;-36
2021/03/24 00:39:36;;;;;;;76.00;40.70;;;4.50;86.30;;;;;;5115508;28;20035;-36
2021/03/24 00:42:03;;;;;;;84.15;41.00;;;4.50;86.20;;;;;;5115525;27;20065;-36
2021/03/24 00:44:29;;;;;;;79.85;39.63;;;4.40;86.20;;;;;;5115073;28;20027;-36
2021/03/24 00:46:56;;;;;;;82.00;38.85;;;4.40;86.30;;;;;;5114639;28;20081;-36
2021/03/24 00:49:24;;;;;;;72.00;34.97;;;4.40;86.50;;;;;;5115281;28;20059;-36
2021/03/24 00:51:49;;;;;;;75.03;36.60;;;4.40;86.40;;;;;;5115261;28;20355;-36
2021/03/24 00:54:15;;;;;;;82.20;39.38;;;4.30;86.30;;;;;;5114893;28;20051;-36
2021/03/24 00:56:41;;;;;;;81.35;37.85;;;4.30;86.30;;;;;;5114969;28;20477;-36
2021/03/24 00:59:06;;;;;;;74.75;37.67;;;4.40;86.20;;;;;;5113671;28;20024;-36
2021/03/24 01:01:32;;;;;;;75.40;36.65;;;4.40;86.10;;;;;;5114807;28;20015;-36
2021/03/24 01:03:58;;;;;;;74.07;37.50;;;4.40;86.10;;;;;;5114779;28;20126;-36
2021/03/24 01:06:24;;;;;;;71.32;36.78;;;4.30;86.20;;;;;;5114721;28;20024;-36
2021/03/24 01:08:51;;;;;;;74.97;38.05;;;4.30;86.10;;;;;;5114589;28;20110;-36
2021/03/24 01:11:16;;;;;;;66.70;36.75;;;4.30;86.20;;;;;;5114843;28;20418;-36
2021/03/24 01:13:42;;;;;;;73.93;36.88;;;4.30;86.30;;;;;;5114959;27;20043;-36
2021/03/24 01:16:08;;;;;;;65.55;35.13;;;4.30;86.40;;;;;;5114812;28;20115;-36
2021/03/24 01:18:33;;;;;;;70.47;34.95;;;4.30;86.30;;;;;;5114748;28;20458;-36
2021/03/24 01:20:59;;;;;;;70.07;35.88;;;4.30;86.40;;;;;;5114311;28;20031;-36
2021/03/24 01:23:24;;;;;;;68.13;36.63;;;4.30;86.40;;;;;;5114342;28;20016;-36
2021/03/24 01:25:50;;;;;;;75.00;40.65;;;4.30;86.20;;;;;;5112989;28;20073;-36
2021/03/24 01:28:24;;;;;;;67.85;33.33;;;4.20;86.30;;;;;;5114330;28;20081;-36
2021/03/24 01:30:56;;;;;;;69.10;36.28;;;4.20;86.10;;;;;;5114316;28;20100;-36
2021/03/24 01:33:23;;;;;;;78.35;37.72;;;4.30;86.40;;;;;;5114575;28;20062;-36
2021/03/24 01:35:49;;;;;;;64.88;34.58;;;4.30;86.00;;;;;;5114412;27;20085;-36
2021/03/24 01:38:14;;;;;;;70.18;34.78;;;4.30;85.80;;;;;;5114162;28;20024;-36
2021/03/24 01:40:50;;;;;;;70.75;34.13;;;4.20;86.10;;;;;;5114122;28;20023;-36
2021/03/24 01:43:24;;;;;;;75.78;34.85;;;4.20;86.30;;;;;;5114081;28;20051;-36
2021/03/24 01:46:17;;;;;;;69.60;37.15;;;4.20;86.40;;;;;;5113936;28;20031;-36
2021/03/24 01:48:47;;;;;;;68.47;34.85;;;4.30;85.70;;;;;;5113817;28;20044;-36
2021/03/24 01:51:14;;;;;;;64.07;33.88;;;4.30;85.00;;;;;;5114319;28;20383;-36
2021/03/24 01:53:40;;;;;;;75.93;36.58;;;4.10;85.50;;;;;;5113941;28;20027;-36
2021/03/24 01:56:09;;;;;;;73.18;37.42;;;4.10;85.10;;;;;;5113889;28;20059;-36
2021/03/24 01:58:36;;;;;;;67.60;33.85;;;4.10;85.20;;;;;;5113764;28;20015;-35
2021/03/24 02:01:06;;;;;;;80.88;35.97;;;4.00;85.50;;;;;;5113161;28;20095;-35
2021/03/24 02:03:32;;;;;;;76.87;36.07;;;3.90;85.50;;;;;;5113802;28;20102;-36
2021/03/24 02:06:00;;;;;;;65.35;33.22;;;3.90;85.60;;;;;;5113836;28;20030;-36
2021/03/24 02:08:32;;;;;;;77.55;36.78;;;3.90;85.60;;;;;;5113515;28;20024;-36
2021/03/24 02:11:22;;;;;;;79.07;38.65;;;3.80;85.40;;;;;;5113785;28;20028;-36
2021/03/24 02:14:10;;;;;;;77.68;37.50;;;3.80;85.70;;;;;;5113784;28;20394;-36
2021/03/24 02:16:44;;;;;;;78.28;36.47;;;3.80;85.90;;;;;;5113628;28;20108;-36
2021/03/24 02:19:39;;;;;;;67.13;33.97;;;3.80;85.80;;;;;;5113951;28;20023;-36
2021/03/24 02:22:09;;;;;;;80.78;37.08;;;3.80;86.10;;;;;;5113294;28;20055;-36
2021/03/24 02:24:53;;;;;;;70.10;36.80;;;3.80;86.20;;;;;;5113680;28;20024;-38
2021/03/24 02:27:21;;;;;;;68.22;34.80;;;3.80;86.00;;;;;;5113788;28;20023;-36
2021/03/24 02:29:56;;;;;;;73.03;36.22;;;3.70;86.40;;;;;;5113782;28;20028;-36
2021/03/24 02:32:26;;;;;;;70.53;33.67;;;3.70;86.60;;;;;;5114072;28;20034;-36
2021/03/24 02:34:55;;;;;;;68.25;32.50;;;3.70;86.90;;;;;;5112104;28;20074;-36
2021/03/24 02:37:21;;;;;;;66.50;35.92;;;3.70;86.30;;;;;;5113769;28;20023;-36
2021/03/24 02:39:49;;;;;;;69.72;34.35;;;3.60;86.60;;;;;;5112135;28;20496;-36
2021/03/24 02:42:15;;;;;;;66.35;32.53;;;3.60;86.60;;;;;;5113658;28;20016;-36
2021/03/24 02:44:42;;;;;;;65.80;33.95;;;3.60;86.60;;;;;;5113671;28;20030;-36
2021/03/24 02:47:09;;;;;;;70.07;37.40;;;3.60;86.70;;;;;;5111842;28;20039;-36
2021/03/24 02:49:38;;;;;;;68.28;33.80;;;3.60;86.80;;;;;;5113699;28;20035;-36
2021/03/24 02:52:04;;;;;;;72.28;35.92;;;3.50;86.80;;;;;;5113608;28;20047;-36
2021/03/24 02:54:32;;;;;;;72.20;33.20;;;3.40;87.00;;;;;;5113220;28;20035;-35
2021/03/24 02:56:59;;;;;;;67.22;33.78;;;3.40;87.10;;;;;;5113263;28;20020;-36
2021/03/24 02:59:25;;;;;;;64.80;35.05;;;3.30;87.20;;;;;;5113800;28;20459;-37
2021/03/24 03:01:57;;;;;;;62.38;31.38;;;3.30;87.40;;;;;;5112923;28;20020;-37
2021/03/24 03:04:28;;;;;;;67.97;33.85;;;3.40;87.20;;;;;;5111992;28;20424;-36
2021/03/24 03:06:58;;;;;;;65.03;34.00;;;3.30;86.70;;;;;;5113552;28;20020;-36
2021/03/24 03:09:35;;;;;;;71.70;34.38;;;3.30;87.40;;;;;;5113351;28;20035;-36
2021/03/24 03:12:09;;;;;;;70.50;35.95;;;3.30;87.70;;;;;;5117574;28;20023;-36
2021/03/24 03:14:43;;;;;;;71.57;37.30;;;3.30;87.40;;;;;;5117024;28;20028;-37
2021/03/24 03:17:14;;;;;;;69.88;34.63;;;3.30;87.40;;;;;;5116849;28;20019;-35
2021/03/24 03:20:06;;;;;;;72.72;33.83;;;3.30;87.10;;;;;;5117072;28;20099;-37
2021/03/24 03:22:35;;;;;;;67.85;34.40;;;3.50;86.60;;;;;;5116032;28;20031;-36
2021/03/24 03:25:26;;;;;;;66.00;33.85;;;3.40;86.60;;;;;;5116062;28;20450;-37
2021/03/24 03:27:54;;;;;;;65.63;34.78;;;3.40;86.50;;;;;;5101372;28;20020;-36
2021/03/24 03:30:28;;;;;;;65.95;32.28;;;3.40;86.50;;;;;;5115481;28;20023;-36
2021/03/24 03:32:57;;;;;;;67.95;35.20;;;3.30;86.60;;;;;;5116632;28;20031;-37
2021/03/24 03:35:24;;;;;;;63.20;32.40;;;3.30;86.70;;;;;;5117534;28;20444;-35
2021/03/24 03:37:55;;;;;;;71.43;34.38;;;3.40;86.60;;;;;;5116767;28;20485;-35
2021/03/24 03:40:21;;;;;;;;;;;3.40;86.40;;;;;;5117343;27;20035;-36
2021/03/24 03:42:48;;;;;;;67.40;33.92;;;3.40;86.20;;;;;;5116756;28;19952;-36
2021/03/24 03:45:15;;;;;;;65.75;33.13;;;3.40;86.30;;;;;;5116726;28;20024;-36
2021/03/24 03:47:42;;;;;;;66.15;33.75;;;3.40;86.30;;;;;;5114980;28;20073;-37
2021/03/24 03:50:13;;;;;;;71.15;35.58;;;3.40;86.30;;;;;;5116340;28;20019;-36
2021/03/24 03:52:53;;;;;;;62.53;33.53;;;3.50;86.00;;;;;;5116643;28;20417;-35
2021/03/24 03:55:37;;;;;;;63.92;34.72;;;3.50;85.90;;;;;;5116438;28;20103;-35
2021/03/24 03:58:09;;;;;;;66.43;30.85;;;3.50;85.60;;;;;;5116257;28;20523;-36
2021/03/24 04:00:41;;;;;;;56.92;32.65;;;3.40;85.70;;;;;;5116488;28;20028;-36
2021/03/24 04:03:14;;;;;;;58.53;31.75;;;3.40;85.90;;;;;;5116424;28;20023;-36
2021/03/24 04:05:43;;;;;;;60.90;31.85;;;3.50;85.90;;;;;;5116447;28;20047;-35
2021/03/24 04:08:27;;;;;;;65.00;33.38;;;3.40;85.80;;;;;;5116215;28;20536;-35
2021/03/24 04:10:59;;;;;;;58.47;30.35;;;3.50;85.80;;;;;;5116552;27;20152;-35
2021/03/24 04:13:27;;;;;;;60.42;33.65;;;3.50;85.50;;;;;;5115958;27;20025;-37
2021/03/24 04:15:56;;;;;;;64.60;34.13;;;3.60;85.00;;;;;;5115674;28;20020;-35
2021/03/24 04:18:33;;;;;;;63.30;32.53;;;3.50;85.10;;;;;;5114472;28;20497;-35
2021/03/24 04:21:00;;;;;;;66.43;32.30;;;3.40;85.50;;;;;;5116334;28;20065;-35
2021/03/24 04:23:31;;;;;;;60.05;30.65;;;3.60;85.60;;;;;;5114865;28;20055;-36
2021/03/24 04:26:21;;;;;;;64.63;32.03;;;3.70;84.60;;;;;;5114326;28;20027;-36
2021/03/24 04:28:53;;;;;;;64.87;33.00;;;3.50;85.00;;;;;;5115871;28;20027;-35
2021/03/24 04:31:22;;;;;;;59.40;30.85;;;3.50;85.10;;;;;;5115845;28;20479;-36
2021/03/24 04:33:48;;;;;;;65.30;32.40;;;3.50;85.20;;;;;;5115510;28;20028;-36
2021/03/24 04:36:39;;;;;;;60.70;31.42;;;3.40;85.30;;;;;;5115927;28;20073;-35
2021/03/24 04:39:22;;;;;;;;;;;3.40;85.60;;;;;;5110639;28;20032;-35
2021/03/24 04:41:49;;;;;;;64.32;31.25;;;3.40;85.60;;;;;;5115558;28;19904;-37
2021/03/24 04:44:27;;;;;;;61.95;32.55;;;3.40;85.60;;;;;;5115506;28;20047;-36
2021/03/24 04:47:09;;;;;;;60.38;31.73;;;3.40;85.50;;;;;;5115317;28;20028;-35
2021/03/24 04:49:44;;;;;;;60.25;30.55;;;3.30;85.40;;;;;;5115532;28;20024;-37
2021/03/24 04:52:11;;;;;;;62.45;31.40;;;3.40;85.50;;;;;;5115251;28;20030;-36
2021/03/24 04:54:40;;;;;;;54.70;31.80;;;3.30;85.60;;;;;;5114973;28;20039;-35
2021/03/24 04:57:08;;;;;;;69.00;33.63;;;3.30;85.60;;;;;;5115599;28;20194;-35
2021/03/24 04:59:56;;;;;;;53.92;29.95;;;3.30;85.60;;;;;;5114932;28;20023;-35
2021/03/24 05:02:30;;;;;;;57.42;31.55;;;3.30;85.70;;;;;;5113664;28;20471;-35
2021/03/24 05:05:23;;;;;;;57.58;30.63;;;3.30;85.60;;;;;;5115139;28;20024;-36
2021/03/24 05:07:58;;;;;;;52.00;29.60;;;3.40;85.40;;;;;;5115057;28;20471;-35
2021/03/24 05:10:28;;;;;;;60.13;31.60;;;3.40;85.00;;;;;;5114801;28;20051;-36
2021/03/24 05:13:05;;;;;;;57.65;31.30;;;3.40;85.10;;;;;;5115186;28;20027;-36
2021/03/24 05:15:36;;;;;;;58.65;29.92;;;3.40;85.00;;;;;;5114923;28;20045;-36
2021/03/24 05:18:05;;;;;;;52.17;28.08;;;3.40;85.30;;;;;;5114680;28;20514;-36
2021/03/24 05:21:25;;;;;;;56.72;28.67;;;3.40;85.30;;;;;;5114584;28;20356;-36
2021/03/24 05:23:57;;;;;;;55.70;29.40;;;3.50;84.90;;;;;;5071799;28;20024;-36
2021/03/24 05:26:37;;;;;;;53.28;29.10;;;3.40;84.90;;;;;;5107757;27;20035;-36
2021/03/24 05:29:11;;;;;;;60.67;29.35;;;3.50;84.70;;;;;;5114792;28;20028;-36
2021/03/24 05:31:42;;;;;;;55.47;30.10;;;3.50;84.60;;;;;;5113196;28;20379;-36
2021/03/24 05:34:18;;;;;;;53.65;29.83;;;3.50;84.80;;;;;;5114647;28;20099;-35
2021/03/24 05:36:47;;;;;;;62.65;29.27;;;3.40;85.00;;;;;;5114264;28;20051;-36
2021/03/24 05:39:21;;;;;;;55.90;30.30;;;3.40;85.10;;;;;;5112859;28;20015;-36
2021/03/24 05:42:14;;;;;;;56.95;30.77;;;3.40;85.10;;;;;;5114194;28;20047;-46
2021/03/24 05:44:42;;;;;;;61.85;30.13;;;3.50;85.20;;;;;;5114030;28;20023;-36
2021/03/24 05:47:45;;;;;;;51.05;28.33;;;3.50;84.80;;;;;;5114041;28;20055;-36
2021/03/24 05:50:26;;;;;;;54.30;29.92;;;3.50;84.80;;;;;;5113882;28;20033;-36
2021/03/24 05:53:12;;;;;;;57.60;29.52;;;3.40;85.00;;;;;;5113960;28;20536;-36
2021/03/24 05:55:50;;;;;;;54.78;29.73;;;3.50;84.90;;;;;;5113952;28;20042;-36
2021/03/24 05:58:35;;;;;;;52.17;28.77;;;3.50;84.90;;;;;;5114113;28;20031;-36
2021/03/24 06:01:21;;;;;;;61.75;29.67;;;3.60;84.70;;;;;;5114056;28;20506;-36
2021/03/24 06:04:05;;;;;;;58.03;30.15;;;3.70;84.60;;;;;;5114087;28;20016;-37
2021/03/24 06:06:40;;;;;;;59.63;28.20;;;3.70;84.50;;;;;;5113807;28;20034;-36
2021/03/24 06:09:33;;;;;;;60.70;31.02;;;3.80;84.20;;;;;;5114095;28;20062;-36
2021/03/24 06:12:07;;;;;;;56.40;28.30;;;4.00;83.50;;;;;;5113993;28;20028;-35
2021/03/24 06:14:51;;;;;;;54.38;28.98;;;4.00;83.30;;;;;;5113586;28;20035;-36
2021/03/24 06:17:47;;;;;;;56.53;29.25;;;4.00;83.40;;;;;;5113791;28;20051;-36
2021/03/24 06:20:22;;;;;;;51.38;25.77;;;4.00;83.30;;;;;;5113761;28;20019;-36
2021/03/24 06:22:50;;;;;;;55.15;29.08;;;4.10;82.90;;;;;;5113414;28;20046;-36
2021/03/24 06:25:31;;;;;;;54.13;30.38;;;4.10;83.10;;;;;;5113308;28;20032;-36
2021/03/24 06:28:21;;;;;;;53.75;28.73;;;4.30;82.90;;;;;;5113733;28;20042;-37
2021/03/24 06:30:54;;;;;;;49.63;28.13;;;4.30;82.60;;;;;;5113687;28;20620;-37
2021/03/24 06:33:45;;;;;;;46.47;26.95;;;4.50;82.10;;;;;;5114057;28;20658;-36
2021/03/24 06:36:29;;;;;;;59.38;26.85;;;4.50;81.70;;;;;;5113350;28;20119;-37
2021/03/24 06:39:13;;;;;;;54.63;25.92;;;4.80;80.60;;;;;;5111952;28;20391;-36
2021/03/24 06:41:56;;;;;;;53.40;25.38;;;4.80;80.20;;;;;;5114224;28;20027;-36
2021/03/24 06:44:46;;;;;;;51.42;26.08;;;5.10;79.30;;;;;;5114225;28;20094;-37
2021/03/24 06:47:22;;;;;;;53.72;25.98;;;5.20;79.00;;;;;;5117016;28;20047;-37
2021/03/24 06:50:15;;;;;;;58.40;30.30;;;5.10;79.20;;;;;;5117260;28;20098;-35
2021/03/24 06:52:59;;;;;;;55.90;25.73;;;5.10;79.30;;;;;;5118106;28;20026;-36
2021/03/24 06:55:44;;;;;;;58.22;25.30;;;5.30;78.70;;;;;;5117463;28;20024;-36
2021/03/24 06:58:31;;;;;;;49.40;25.30;;;5.50;77.70;;;;;;5117529;28;20099;-37
2021/03/24 07:01:31;;;;;;;47.92;24.88;;;5.50;77.90;;;;;;5117439;28;20076;-37
2021/03/24 07:04:06;;;;;;;48.53;26.27;;;5.60;77.30;;;;;;5117470;28;20467;-36
2021/03/24 07:06:59;;;;;;;50.03;25.65;;;5.70;77.00;;;;;;5116951;28;20027;-36
2021/03/24 07:09:30;;;;;;;55.70;25.15;;;5.80;76.70;;;;;;5117273;27;20077;-36
2021/03/24 07:12:16;;;;;;;45.35;24.38;;;5.80;77.00;;;;;;5116663;28;20137;-37
2021/03/24 07:15:12;;;;;;;49.25;24.85;;;5.90;76.50;;;;;;5116584;28;20035;-36
2021/03/24 07:17:46;;;;;;;45.15;23.65;;;5.90;76.60;;;;;;5116730;28;20585;-38
2021/03/24 07:20:11;;;;;;;42.22;23.90;;;6.00;76.40;;;;;;5117239;28;20103;-36
2021/03/24 07:22:52;;;;;;;47.30;26.50;;;6.20;76.00;;;;;;5116806;28;20026;-36
2021/03/24 07:25:20;;;;;;;50.45;27.55;;;6.40;75.30;;;;;;5116781;28;20027;-37
2021/03/24 07:28:37;;;;;;;44.70;22.88;;;6.40;74.60;;;;;;5116807;28;20043;-37
2021/03/24 07:31:36;;;;;;;52.10;25.65;;;6.50;74.70;;;;;;5107814;28;20484;-37
2021/03/24 07:34:30;;;;;;;44.92;23.90;;;6.70;73.80;;;;;;5116928;28;20020;-35
2021/03/24 07:37:07;;;;;;;54.53;26.50;;;6.80;73.70;;;;;;5116968;28;20035;-38
2021/03/24 07:40:02;;;;;;;57.20;26.08;;;7.00;73.10;;;;;;5116890;28;20026;-36
2021/03/24 07:43:12;;;;;;;50.28;25.98;;;7.10;72.60;;;;;;5117080;28;20392;-36
2021/03/24 07:45:52;;;;;;;46.42;23.63;;;7.20;72.80;;;;;;5096783;28;20051;-36
2021/03/24 07:48:42;;;;;;;43.92;23.77;;;7.50;71.10;;;;;;5115977;28;20044;-36
2021/03/24 07:51:18;;;;;;;38.15;23.95;;;7.50;71.20;;;;;;5114997;28;20023;-38
2021/03/24 07:54:06;;;;;;;48.88;23.83;;;7.30;72.10;;;;;;5115879;28;20019;-36
2021/03/24 07:56:56;;;;;;;48.95;25.15;;;7.50;71.90;;;;;;5115646;28;20026;-35
2021/03/24 07:59:40;;;;;;;43.15;24.77;;;7.70;71.60;;;;;;5115472;28;20467;-37
2021/03/24 08:02:35;;;;;;;45.83;24.00;;;7.80;70.90;;;;;;5116014;28;20043;-36
2021/03/24 08:05:25;;;;;;;47.90;23.60;;;8.00;70.60;;;;;;5114321;28;20028;-43
2021/03/24 08:08:00;;;;;;;41.57;23.73;;;8.00;70.50;;;;;;5115989;28;20028;-38
2021/03/24 08:10:31;;;;;;;41.08;23.60;;;8.10;70.40;;;;;;5114165;28;20027;-37
2021/03/24 08:13:28;;;;;;;51.20;25.88;;;8.30;69.30;;;;;;5114214;28;20028;-37
2021/03/24 08:15:57;;;;;;;46.00;22.77;;;8.60;68.80;;;;;;5116010;28;20537;-36
2021/03/24 08:18:41;;;;;;;39.22;23.85;;;8.70;68.20;;;;;;5116095;28;20023;-37
2021/03/24 08:21:17;;;;;;;49.25;25.90;;;8.60;68.80;;;;;;5116350;28;20466;-36
2021/03/24 08:23:58;;;;;;;43.22;24.30;;;9.10;67.40;;;;;;5115826;28;20558;-37
2021/03/24 08:26:56;;;;;;;42.95;24.33;;;9.30;65.90;;;;;;5115137;28;20106;-36
2021/03/24 08:29:56;;;;;;;39.83;23.27;;;9.90;64.20;;;;;;5113319;28;20043;-37
2021/03/24 08:33:16;;;;;;;43.38;22.33;;;10.40;62.10;;;;;;5113550;28;20378;-37
2021/03/24 08:35:42;;;;;;;41.73;24.90;;;10.30;62.10;;;;;;5072217;28;20388;-36
2021/03/24 08:38:34;;;;;;;43.08;23.15;;;10.70;60.90;;;;;;5055826;28;20025;-38
2021/03/24 08:41:33;;;;;;;50.88;25.98;;;10.70;60.50;;;;;;5099899;28;20127;-36
2021/03/24 08:44:35;;;;;;;39.47;24.90;;;10.80;60.70;;;;;;5115141;28;20015;-36
2021/03/24 08:47:11;;;;;;;40.83;24.05;;;11.50;58.10;;;;;;5098932;28;20039;-36
2021/03/24 08:49:40;;;;;;;45.58;24.17;;;12.10;56.10;;;;;;5115279;28;20059;-36
2021/03/24 08:52:43;;;;;;;54.65;27.70;;;11.70;55.80;;;;;;5115155;28;20151;-36
2021/03/24 08:55:19;;;;;;;47.22;26.95;;;11.40;56.80;;;;;;5115102;28;20055;-36
2021/03/24 08:57:57;;;;;;;49.28;26.42;;;11.00;58.40;;;;;;5113390;28;20019;-36
2021/03/24 09:00:48;;;;;;;46.45;26.00;;;11.80;56.10;;;;;;5116188;28;20042;-36
2021/03/24 09:03:20;;;;;;;52.53;27.65;;;11.80;55.00;;;;;;5116178;28;20030;-37
2021/03/24 09:06:23;;;;;;;49.25;26.92;;;11.60;56.50;;;;;;5115703;28;20031;-37
2021/03/24 09:09:13;;;;;;;52.75;26.25;;;12.30;54.50;;;;;;5114353;28;20104;-35
2021/03/24 09:11:47;;;;;;;51.38;27.45;;;13.30;51.10;;;;;;5114458;28;20031;-36
2021/03/24 09:14:28;;;;;;;51.45;27.33;;;13.10;50.50;;;;;;5115023;28;20023;-42
2021/03/24 09:17:05;;;;;;;51.83;28.00;;;13.20;50.70;;;;;;5114640;28;20073;-38
2021/03/24 09:19:49;;;;;;;55.20;30.48;;;13.80;48.80;;;;;;5114431;28;20043;-37
2021/03/24 09:22:30;;;;;;;50.47;26.83;;;13.20;50.30;;;;;;5115211;28;20027;-38
2021/03/24 09:25:26;;;;;;;62.20;32.20;;;14.00;47.90;;;;;;5114639;28;20023;-38
2021/03/24 09:28:20;;;;;;;49.53;28.08;;;14.30;47.10;;;;;;5112345;28;20051;-38
2021/03/24 09:31:21;;;;;;;48.70;28.15;;;13.70;48.60;;;;;;5113997;28;20084;-36
2021/03/24 09:33:52;;;;;;;49.63;27.20;;;14.40;46.80;;;;;;5114087;28;20023;-37
2021/03/24 09:36:36;;;;;;;;;;;13.00;50.10;;;;;;5115089;28;20126;-37
2021/03/24 09:39:23;;;;;;;50.22;28.05;;;13.40;49.30;;;;;;5114133;28;19904;-37
2021/03/24 09:41:51;;;;;;;48.40;28.73;;;13.30;49.30;;;;;;5114240;28;20081;-37
2021/03/24 09:44:24;;;;;;;47.35;25.10;;;13.50;49.10;;;;;;5114044;28;20024;-36
2021/03/24 09:46:53;;;;;;;59.40;30.63;;;13.80;47.70;;;;;;5114119;28;20524;-37
2021/03/24 09:49:30;;;;;;;55.58;28.50;;;13.30;49.30;;;;;;5113989;28;20088;-37
2021/03/24 09:52:16;;;;;;;59.33;28.52;;;13.30;49.20;;;;;;5113919;28;20034;-37
2021/03/24 09:55:03;;;;;;;36.65;20.40;;;14.10;47.50;;;;;;5115175;28;20023;-37
2021/03/24 09:57:39;;;;;;;60.33;28.75;;;13.50;47.60;;;;;;5114987;28;20443;-37
2021/03/24 10:00:12;;;;;;;59.05;29.70;;;12.90;50.10;;;;;;5113279;28;20020;-37
2021/03/24 10:02:48;;;;;;;54.05;27.52;;;13.90;47.50;;;;;;5114298;28;20016;-38
2021/03/24 10:05:22;;;;;;;51.83;28.27;;;14.30;46.50;;;;;;5115510;28;20130;-38
2021/03/24 10:07:59;;;;;;;64.53;31.02;;;14.50;45.70;;;;;;5115979;28;20028;-37
2021/03/24 10:10:30;;;;;;;53.42;27.88;;;14.00;46.80;;;;;;5114266;28;20027;-37
2021/03/24 10:13:02;;;;;;;;;;;14.80;44.80;;;;;;5115668;28;20039;-37
2021/03/24 10:15:42;;;;;;;54.38;28.38;;;14.50;45.50;;;;;;5114019;28;19908;-38
2021/03/24 10:18:11;;;;;;;54.17;28.77;;;14.60;45.60;;;;;;5114549;28;20362;-36
2021/03/24 10:20:55;;;;;;;65.25;29.80;;;14.80;45.40;;;;;;5113351;28;20035;-38
2021/03/24 10:23:27;;;;;;;51.35;29.63;;;15.40;43.50;;;;;;5112069;28;20114;-37
2021/03/24 10:26:16;;;;;;;61.47;30.23;;;15.70;42.60;;;;;;5113469;28;20095;-38
2021/03/24 10:29:09;;;;;;;58.85;31.52;;;15.20;43.80;;;;;;5114210;28;20045;-38
2021/03/24 10:32:20;;;;;;;59.78;32.55;;;15.00;43.40;;;;;;5113789;28;20028;-38
2021/03/24 10:34:48;;;;;;;65.50;30.35;;;16.10;41.90;;;;;;5110406;28;20035;-37
2021/03/24 10:37:26;;;;;;;61.35;31.48;;;16.10;40.90;;;;;;5113736;28;20054;-36
2021/03/24 10:40:01;;;;;;;67.13;33.42;;;14.90;43.90;;;;;;5113328;28;20032;-36
2021/03/24 10:42:39;;;;;;;60.10;30.65;;;14.40;44.80;;;;;;5112874;27;20031;-36
2021/03/24 10:45:05;;;;;;;62.40;32.08;;;15.90;42.00;;;;;;5113407;28;20107;-36
2021/03/24 10:47:40;;;;;;;59.13;29.80;;;16.30;40.50;;;;;;5112958;28;20459;-37
2021/03/24 10:50:28;;;;;;;65.07;32.75;;;15.60;41.60;;;;;;5112604;28;20552;-36
2021/03/24 10:53:24;;;;;;;60.58;28.55;;;15.80;41.80;;;;;;5112454;28;20023;-36
2021/03/24 10:56:21;;;;;;;55.78;27.77;;;15.00;42.60;;;;;;5112857;28;20515;-36
2021/03/24 10:58:59;;;;;;;56.05;26.65;;;15.20;42.90;;;;;;5094460;28;20035;-36
2021/03/24 11:01:38;;;;;;;56.35;27.15;;;15.80;42.20;;;;;;5112826;28;20024;-36
2021/03/24 11:04:23;;;;;;;58.60;29.52;;;16.10;40.70;;;;;;5113226;28;20024;-36
2021/03/24 11:07:10;;;;;;;51.38;24.15;;;15.30;42.60;;;;;;5113237;28;20373;-36
2021/03/24 11:09:43;;;;;;;50.55;26.42;;;16.10;40.50;;;;;;5113838;28;20024;-37
2021/03/24 11:12:12;;;;;;;53.38;25.05;;;16.50;39.90;;;;;;5112894;28;20057;-36
2021/03/24 11:14:42;;;;;;;49.70;25.35;;;17.20;38.80;;;;;;5113286;28;20028;-36
2021/03/24 11:17:27;;;;;;;53.28;25.50;;;16.20;40.30;;;;;;5113415;28;20532;-36
2021/03/24 11:20:12;;;;;;;50.42;23.77;;;15.60;42.00;;;;;;5094942;28;20027;-36
2021/03/24 11:22:58;;;;;;;44.72;24.33;;;15.50;41.40;;;;;;5112799;28;20031;-36
2021/03/24 11:25:35;;;;;;;46.72;25.13;;;15.80;40.60;;;;;;5113106;28;20536;-36
2021/03/24 11:28:27;;;;;;;54.33;24.35;;;15.80;40.60;;;;;;5112983;28;20504;-36
2021/03/24 11:31:05;;;;;;;53.10;24.08;;;15.80;41.20;;;;;;5113165;28;20020;-38
2021/03/24 11:33:42;;;;;;;49.47;25.05;;;15.70;41.30;;;;;;5116434;28;20097;-35
2021/03/24 11:36:23;;;;;;;48.83;23.08;;;15.80;41.60;;;;;;5116041;28;20413;-37
2021/03/24 11:38:58;;;;;;;48.08;24.13;;;16.70;39.80;;;;;;5116491;27;20027;-36
2021/03/24 11:41:27;;;;;;;45.45;22.83;;;17.50;38.40;;;;;;5116143;28;20471;-36
2021/03/24 11:44:01;;;;;;;44.43;23.60;;;16.90;38.80;;;;;;5114777;28;20044;-36
2021/03/24 11:46:42;;;;;;;45.20;24.30;;;16.60;39.10;;;;;;5114506;28;20511;-41
2021/03/24 11:49:35;;;;;;;42.88;23.40;;;16.00;40.10;;;;;;5115725;28;20047;-36
2021/03/24 11:52:13;;;;;;;47.95;23.10;;;16.30;40.00;;;;;;5115995;28;20064;-36
2021/03/24 11:54:59;;;;;;;44.72;22.75;;;17.50;37.60;;;;;;5114536;28;20024;-37
2021/03/24 11:57:45;;;;;;;43.10;22.95;;;17.80;36.50;;;;;;5116723;27;20020;-37
2021/03/24 12:00:21;;;;;;;40.28;22.05;;;17.20;37.30;;;;;;5115846;28;20026;-36
2021/03/24 12:03:08;;;;;;;43.90;24.60;;;16.40;38.70;;;;;;5115678;28;20077;-36
2021/03/24 12:05:57;;;;;;;39.75;21.25;;;16.00;39.80;;;;;;5115796;28;20023;-37
2021/03/24 12:08:26;;;;;;;42.60;22.35;;;15.80;40.40;;;;;;5116046;28;20051;-37
2021/03/24 12:11:22;;;;;;;42.85;20.88;;;16.80;38.40;;;;;;5115854;28;20094;-37
2021/03/24 12:13:49;;;;;;;55.42;19.83;;;16.80;38.00;;;;;;5116173;28;20019;-37
2021/03/24 12:16:20;;;;;;;36.28;21.95;;;16.80;38.30;;;;;;5116017;28;20471;-37
2021/03/24 12:18:53;;;;;;;46.63;22.85;;;16.60;38.30;;;;;;5115913;28;20510;-36
2021/03/24 12:21:38;;;;;;;38.72;21.90;;;17.20;37.70;;;;;;5114264;28;20019;-36
2021/03/24 12:24:25;;;;;;;40.50;20.50;;;17.50;37.00;;;;;;5115786;28;20092;-36
2021/03/24 12:26:51;;;;;;;43.85;22.15;;;17.70;36.90;;;;;;5115534;28;20027;-36
2021/03/24 12:29:26;;;;;;;42.45;22.63;;;16.80;36.90;;;;;;5114106;28;20024;-36
2021/03/24 12:32:02;;;;;;;40.25;19.83;;;16.50;37.50;;;;;;5115338;28;20023;-36
2021/03/24 12:34:31;;;;;;;34.53;18.63;;;16.70;37.90;;;;;;5114078;28;20027;-37
2021/03/24 12:37:01;;;;;;;46.83;22.08;;;17.50;36.30;;;;;;5115142;28;20023;-36
2021/03/24 12:39:38;;;;;;;39.40;21.48;;;17.20;37.10;;;;;;5115072;28;20102;-38
2021/03/24 12:42:26;;;;;;;40.08;21.70;;;17.70;36.60;;;;;;5114992;28;20539;-36
2021/03/24 12:44:52;;;;;;;37.65;19.88;;;17.10;37.20;;;;;;5114219;28;20030;-36
2021/03/24 12:47:38;;;;;;;38.42;20.60;;;17.60;36.10;;;;;;5115661;28;20062;-36
2021/03/24 12:50:11;;;;;;;40.53;21.13;;;16.70;37.90;;;;;;5113743;28;20024;-36
2021/03/24 12:52:58;;;;;;;38.85;20.20;;;16.30;39.50;;;;;;5114601;28;20047;-36
2021/03/24 12:55:23;;;;;;;37.50;20.23;;;15.80;40.80;;;;;;5114802;28;20119;-36
2021/03/24 12:58:13;;;;;;;43.05;19.95;;;16.00;40.60;;;;;;5115283;28;20050;-38
2021/03/24 13:00:52;;;;;;;38.67;21.52;;;15.70;41.20;;;;;;5115108;28;20019;-37
2021/03/24 13:03:36;;;;;;;45.30;22.67;;;15.50;41.70;;;;;;5114918;28;20028;-36
2021/03/24 13:06:32;;;;;;;41.33;21.02;;;15.30;42.10;;;;;;5114954;28;20024;-36
2021/03/24 13:09:06;;;;;;;32.10;20.42;;;15.80;41.40;;;;;;5114910;28;20050;-36
2021/03/24 13:11:47;;;;;;;44.97;22.27;;;15.90;41.20;;;;;;5114786;28;20356;-36
2021/03/24 13:14:28;;;;;;;42.70;21.80;;;15.70;41.70;;;;;;5113383;28;20061;-36
2021/03/24 13:16:58;;;;;;;;;;;15.30;42.60;;;;;;5114527;28;20028;-37
2021/03/24 13:19:32;;;;;;;37.15;20.05;;;15.20;42.90;;;;;;5114073;28;19907;-37
2021/03/24 13:22:26;;;;;;;34.50;18.45;;;15.70;41.80;;;;;;5114441;28;20413;-37
2021/03/24 13:25:19;;;;;;;39.53;17.23;;;16.30;40.70;;;;;;5114445;28;20112;-38
2021/03/24 13:28:06;;;;;;;42.95;20.00;;;16.10;40.90;;;;;;5114341;28;20023;-37